Latest Weather Observations for Perth Airport

IDW60801

Issued at 2:02 pm WST Wednesday 19 June 2019 (issued every 10 minutes, with the page automatically refreshed every 10 minutes)

About weather observations | Map of weather stations | Latest weather observations for WA | Other Formats
Station Details ID: 009021 Name: PERTH AIRPORT Lat: -31.93 Lon: 115.98 Height: 15.4 m
Data from the previous 72 hours. | See also: Recent months at Perth Airport
Date/Time
WST
Temp
°C
App
Temp
°C
Dew
Point
°C
Rel
Hum
%
Delta-T
°C
Wind Press
QNH
hPa
Press
MSL
hPa
Rain since
9am
mm
Dir  Spd
km/h
Gust
km/h
Spd
kts
Gust
kts
19/01:30pm 18.3 13.8 2.2 34 7.3 NNE 15 20 8 11 1022.0 1022.0 0.0
19/01:00pm 18.5 14.3 3.6 37 7.0 NNE 15 22 8 12 1022.3 1022.3 0.0
19/12:30pm 18.3 13.5 4.5 40 6.6 NNE 19 22 10 12 1022.6 1022.6 0.0
19/12:00pm 17.6 13.2 4.9 43 6.0 NE 17 24 9 13 1023.4 1023.4 0.0
19/11:30am 16.5 14.1 5.2 47 5.4 N 7 15 4 8 1023.9 1023.9 0.0
19/11:00am 15.1 12.4 5.6 53 4.5 ENE 9 13 5 7 1024.6 1024.6 0.0
19/10:30am 14.4 10.8 5.2 54 4.3 ENE 13 19 7 10 1024.9 1024.9 0.0
19/10:00am 12.8 9.1 4.5 57 3.8 ENE 13 19 7 10 1025.0 1025.0 0.0
19/09:30am 11.8 7.7 4.5 61 3.3 ENE 15 19 8 10 1025.0 1025.0 0.0
19/09:00am 10.2 6.4 3.9 65 2.8 NE 13 19 7 10 1025.0 1025.0 0.0
19/08:30am 8.4 3.4 3.7 72 2.0 ENE 19 24 10 13 1024.7 1024.7 0.0
19/08:00am 6.8 2.9 3.6 80 1.3 NE 13 15 7 8 1024.6 1024.6 0.0
19/07:30am 3.0 -0.4 2.0 93 0.4 NNE 9 11 5 6 1024.7 1024.7 0.0
19/07:00am 3.5 0.2 2.2 91 0.5 NNE 9 15 5 8 1024.5 1024.5 0.0
19/06:30am 5.0 1.7 2.7 85 0.9 NNE 9 15 5 8 1024.1 1024.1 0.0
19/06:00am 5.3 2.1 3.2 86 0.9 NNE 9 11 5 6 1023.9 1023.9 0.0
19/05:30am 5.4 1.4 3.1 85 0.9 NNE 13 15 7 8 1023.9 1023.9 0.0
19/05:00am 6.1 1.5 3.6 84 1.0 ENE 17 19 9 10 1023.9 1023.9 0.0
19/04:30am 6.6 2.4 3.9 83 1.2 ENE 15 19 8 10 1023.7 1023.7 0.0
19/04:00am 5.8 3.1 3.8 87 0.8 ENE 7 11 4 6 1024.2 1024.2 0.0
19/03:30am 3.6 1.0 3.0 96 0.2 ENE 6 7 3 4 1024.6 1024.6 0.0
19/03:00am 3.7 2.2 3.1 96 0.2 CALM 0 0 0 0 1024.9 1024.9 0.0
19/02:30am 3.4 0.5 2.8 96 0.2 E 7 9 4 5 1025.0 1025.0 0.0
19/02:00am 3.5 2.0 3.1 97 0.2 CALM 0 0 0 0 1025.0 1025.0 0.0
19/01:30am 3.0 1.4 2.3 95 0.3 CALM 0 0 0 0 1024.9 1024.9 0.0
19/01:00am 3.6 0.8 2.9 95 0.3 NE 7 7 4 4 1025.1 1025.1 0.0
19/12:30am 3.9 1.1 3.2 95 0.3 ENE 7 7 4 4 1025.3 1025.3 0.0
19/12:00am 4.5 1.4 3.6 94 0.4 ENE 9 11 5 6 1025.5 1025.5 0.0
 
Date/Time
WST
Temp
°C
App
Temp
°C
Dew
Point
°C
Rel
Hum
%
Delta-T
°C
Wind Press
QNH
hPa
Press
MSL
hPa
Rain since
9am
mm
Dir  Spd
km/h
Gust
km/h
Spd
kts
Gust
kts
18/11:30pm 4.7 1.6 3.5 92 0.5 ENE 9 9 5 5 1025.5 1025.5 0.0
18/11:00pm 5.6 2.6 3.9 89 0.7 ENE 9 11 5 6 1025.6 1025.6 0.0
18/10:30pm 7.4 4.6 5.0 85 1.1 ENE 9 11 5 6 1025.8 1025.8 0.0
18/10:00pm 5.6 3.7 4.7 94 0.4 NE 4 9 2 5 1025.7 1025.7 0.0
18/09:30pm 5.9 3.9 4.5 91 0.6 NE 4 7 2 4 1025.8 1025.8 0.0
18/09:00pm 6.5 4.1 5.1 91 0.6 NNE 7 7 4 4 1025.6 1025.6 0.0
18/08:30pm 6.6 4.1 4.9 89 0.7 ENE 7 13 4 7 1025.4 1025.4 0.0
18/08:00pm 6.8 4.3 5.0 88 0.8 SSE 7 9 4 5 1025.4 1025.4 0.0
18/07:30pm 8.0 5.3 5.6 85 1.1 S 9 11 5 6 1025.2 1025.2 0.0
18/07:00pm 7.8 5.3 4.9 82 1.3 ESE 7 7 4 4 1025.0 1025.0 0.0
18/06:30pm 9.3 6.1 5.3 76 1.8 SE 11 15 6 8 1024.8 1024.8 0.0
18/06:00pm 10.6 7.9 5.4 70 2.4 SE 9 13 5 7 1024.4 1024.4 0.0
18/05:30pm 12.9 9.4 5.3 60 3.5 SE 13 15 7 8 1024.4 1024.4 0.0
18/05:00pm 15.0 11.6 5.8 54 4.4 SE 13 20 7 11 1024.5 1024.5 0.0
18/04:30pm 16.4 12.8 5.1 47 5.4 S 13 17 7 9 1024.5 1024.5 0.0
18/04:00pm 16.9 14.6 5.5 47 5.5 ESE 7 13 4 7 1024.5 1024.5 0.0
18/03:30pm 17.1 14.2 4.8 44 5.9 SW 9 13 5 7 1024.4 1024.4 0.0
18/03:00pm 17.1 13.6 5.4 46 5.6 S 13 17 7 9 1024.6 1024.6 0.0
18/02:30pm 17.3 14.4 4.6 43 6.0 N 9 13 5 7 1024.6 1024.6 0.0
18/02:00pm 17.1 14.4 3.8 41 6.2 SSW 7 13 4 7 1024.9 1024.9 0.0
18/01:30pm 16.6 14.1 4.0 43 5.9 SW 6 9 3 5 1025.3 1025.3 0.0
18/01:00pm 16.5 14.2 4.9 46 5.5 WNW 6 11 3 6 1025.9 1025.9 0.0
18/12:30pm 15.7 12.7 4.1 46 5.4 SSW 9 13 5 7 1026.3 1026.3 0.0
18/12:00pm 15.4 12.9 4.5 48 5.1 ESE 7 11 4 6 1027.0 1027.0 0.0
18/11:30am 15.3 13.6 6.1 54 4.4 E 4 11 2 6 1027.6 1027.6 0.0
18/11:00am 13.8 11.6 5.2 56 4.0 S 6 9 3 5 1028.3 1028.3 0.0
18/10:30am 12.7 10.4 5.8 63 3.2 S 7 11 4 6 1028.7 1028.7 0.0
18/10:00am 11.8 9.8 6.1 68 2.7 SE 6 9 3 5 1028.9 1028.9 0.0
18/09:30am 10.1 7.8 5.5 73 2.1 SSE 7 9 4 5 1028.9 1028.9 0.0
18/09:00am 8.8 7.3 4.8 76 1.8 S 2 7 1 4 1028.8 1028.8 0.0
18/08:30am 7.7 6.5 4.5 80 1.4 CALM 0 0 0 0 1028.7 1028.7 0.0
18/08:00am 5.0 2.2 3.2 88 0.7 SSW 7 11 4 6 1028.5 1028.5 0.0
18/07:30am 4.1 0.8 2.3 88 0.7 SE 9 11 5 6 1028.3 1028.3 0.0
18/07:00am 5.8 2.6 3.0 82 1.1 NE 9 13 5 7 1027.8 1027.8 0.0
18/06:30am 5.4 2.2 3.3 86 0.9 ENE 9 13 5 7 1027.9 1027.9 0.0
18/06:00am 2.9 -0.4 2.2 95 0.3 NE 9 13 5 7 1027.8 1027.8 0.0
18/05:30am 2.7 1.0 2.0 95 0.3 CALM 0 4 0 2 1028.0 1028.0 0.0
18/05:00am 3.1 1.4 1.9 92 0.5 CALM 0 0 0 0 1027.6 1027.6 0.0
18/04:30am 4.5 2.9 2.7 88 0.7 CALM 0 0 0 0 1027.5 1027.5 0.0
18/04:00am 5.8 2.6 3.3 84 1.0 NNE 9 9 5 5 1027.3 1027.3 0.0
18/03:30am 6.4 3.7 3.7 83 1.1 NE 7 11 4 6 1027.3 1027.3 0.0
18/03:00am 5.3 1.8 3.6 89 0.7 NNE 11 11 6 6 1027.4 1027.4 0.0
18/02:30am 5.7 3.9 3.5 86 0.9 NE 2 9 1 5 1027.6 1027.6 0.0
18/02:00am 6.3 3.7 4.1 86 0.9 ENE 7 9 4 5 1027.6 1027.6 0.0
18/01:30am 5.3 3.6 4.0 91 0.5 NE 2 7 1 4 1027.6 1027.6 0.0
18/01:00am 5.2 3.5 3.9 91 0.5 NNE 2 6 1 3 1027.8 1027.8 0.0
18/12:30am 4.9 2.2 3.7 92 0.5 NE 7 11 4 6 1028.1 1028.1 0.0
18/12:00am 5.7 2.7 3.9 88 0.8 E 9 13 5 7 1028.6 1028.6 0.0
 
Date/Time
WST
Temp
°C
App
Temp
°C
Dew
Point
°C
Rel
Hum
%
Delta-T
°C
Wind Press
QNH
hPa
Press
MSL
hPa
Rain since
9am
mm
Dir  Spd
km/h
Gust
km/h
Spd
kts
Gust
kts
17/11:30pm 6.7 4.3 4.4 85 1.0 E 6 7 3 4 1028.8 1028.8 0.0
17/11:00pm 7.6 5.7 4.7 82 1.3 E 4 9 2 5 1028.7 1028.7 0.0
17/10:30pm 7.9 5.6 5.0 82 1.3 E 6 19 3 10 1028.8 1028.8 0.0
17/10:00pm 8.2 5.8 5.1 81 1.4 ENE 7 9 4 5 1029.0 1029.0 0.0
17/09:30pm 9.2 6.5 5.6 78 1.6 E 9 13 5 7 1029.2 1029.2 0.0
17/09:00pm 9.5 7.3 6.0 79 1.6 E 7 9 4 5 1029.5 1029.5 0.0
17/08:30pm 10.1 7.5 6.3 77 1.8 ENE 9 11 5 6 1029.4 1029.4 0.0
17/08:00pm 9.9 7.7 6.3 78 1.7 E 7 9 4 5 1029.1 1029.1 0.0
17/07:30pm 10.4 9.6 6.5 77 1.8 CALM 0 6 0 3 1029.0 1029.0 0.0
17/07:00pm 10.8 8.5 7.3 79 1.7 ESE 9 11 5 6 1028.9 1028.9 0.0
17/06:30pm 11.3 8.9 6.8 74 2.1 SE 9 11 5 6 1028.6 1028.6 0.0
17/06:00pm 11.8 8.9 6.7 71 2.4 SSE 11 15 6 8 1028.5 1028.5 0.0
17/05:30pm 12.3 9.0 6.4 67 2.8 SSE 13 17 7 9 1028.3 1028.3 0.0
17/05:00pm 14.3 11.0 6.4 59 3.8 SE 13 17 7 9 1028.1 1028.1 0.0
17/04:30pm 15.2 11.9 6.2 55 4.3 SE 13 19 7 10 1028.1 1028.1 0.0
17/04:00pm 15.2 12.3 6.7 57 4.1 ENE 11 17 6 9 1028.2 1028.2 0.0
17/03:30pm 16.4 13.7 5.4 48 5.3 NE 9 15 5 8 1028.1 1028.1 0.0
17/03:00pm 15.3 12.5 6.8 57 4.1 E 11 17 6 9 1028.2 1028.2 0.0
17/02:30pm 16.8 13.4 6.0 49 5.3 ENE 13 20 7 11 1028.2 1028.2 0.0
17/02:00pm 16.2 12.0 5.8 50 5.0 ESE 17 26 9 14 1028.3 1028.3 0.0
17/01:30pm 17.0 13.9 7.1 52 4.9 E 13 19 7 10 1028.6 1028.6 0.0
17/01:00pm 17.0 13.3 7.9 55 4.6 E 17 24 9 13 1028.9 1028.9 0.0
17/12:30pm 16.1 12.7 7.8 58 4.2 ESE 15 19 8 10 1029.3 1029.3 0.0
17/12:00pm 15.3 11.6 8.1 62 3.6 E 17 28 9 15 1029.9 1029.9 0.0
17/11:30am 14.6 10.2 7.4 62 3.5 NE 20 26 11 14 1030.3 1030.3 0.0
17/11:00am 14.5 10.0 7.1 61 3.6 E 20 28 11 15 1030.5 1030.5 0.0
17/10:30am 14.2 9.6 6.6 60 3.7 ESE 20 28 11 15 1030.7 1030.7 0.0
17/10:00am 13.3 10.1 6.9 65 3.1 ESE 13 19 7 10 1030.8 1030.8 0.0
17/09:30am 12.9 9.1 7.4 69 2.7 ESE 17 24 9 13 1030.7 1030.7 0.0
17/09:00am 12.4 9.5 8.1 75 2.1 ESE 13 19 7 10 1030.4 1030.4 0.2
17/08:30am 12.0 8.9 8.7 80 1.6 ESE 15 20 8 11 1030.2 1030.2 0.2
17/08:00am 11.7 9.4 8.9 83 1.4 ESE 11 19 6 10 1029.8 1029.8 0.2
17/07:30am 11.6 9.7 9.2 85 1.2 ESE 9 13 5 7 1029.5 1029.5 0.2
17/07:00am 10.8 8.7 9.7 93 0.5 SE 11 17 6 9 1029.2 1029.2 0.2
17/06:30am 10.1 8.4 9.8 98 0.2 ENE 9 17 5 9 1029.0 1029.0 0.2
17/06:00am 7.7 5.8 7.6 99 0.0 NNW 7 9 4 5 1028.7 1028.7 0.2
17/05:30am 6.9 4.8 6.6 98 0.1 N 7 9 4 5 1028.4 1028.4 0.0
17/05:00am 7.7 6.3 7.4 98 0.1 SSW 4 11 2 6 1028.1 1028.1 0.0
17/04:58am 7.4 5.6 7.1 98 0.1 SSW 6 7 3 4 1028.1 1028.1 0.0
17/04:30am 7.7 6.3 7.3 97 0.2 NNE 4 9 2 5 1027.9 1027.9 0.0
17/04:00am 7.9 6.0 7.6 98 0.1 ENE 7 11 4 6 1027.7 1027.7 0.0
17/03:30am 8.5 5.9 7.9 96 0.3 S 11 13 6 7 1027.5 1027.5 0.0
17/03:00am 9.6 8.7 9.3 98 0.1 S 4 9 2 5 1027.6 1027.6 0.0
17/02:30am 9.0 8.7 8.6 97 0.2 CALM 0 0 0 0 1027.5 1027.5 0.0
17/02:00am 9.9 8.5 9.4 97 0.2 ESE 7 7 4 4 1027.2 1027.2 0.0
17/01:30am 9.9 8.1 9.4 97 0.2 E 9 11 5 6 1027.0 1027.0 0.0
17/01:00am 10.5 9.4 10.0 97 0.3 E 6 7 3 4 1027.0 1027.0 0.0
17/12:30am 10.6 9.4 10.3 98 0.2 NW 7 13 4 7 1027.0 1027.0 0.0
17/12:00am 10.7 9.2 10.4 98 0.2 NNW 9 9 5 5 1027.0 1027.0 0.0
 
Date/Time
WST
Temp
°C
App
Temp
°C
Dew
Point
°C
Rel
Hum
%
Delta-T
°C
Wind Press
QNH
hPa
Press
MSL
hPa
Rain since
9am
mm
Dir  Spd
km/h
Gust
km/h
Spd
kts
Gust
kts
16/11:30pm 9.0 7.6 8.7 98 0.1 NNE 6 9 3 5 1027.1 1027.1 0.0
16/11:00pm 8.2 6.4 7.8 97 0.2 NNE 7 9 4 5 1026.9 1026.9 0.0
16/10:30pm 8.2 6.4 7.8 97 0.2 NNE 7 9 4 5 1027.0 1027.0 0.0
16/10:00pm 8.4 6.7 7.6 95 0.4 NNE 6 7 3 4 1027.1 1027.1 0.0
16/09:30pm 9.1 8.3 8.3 95 0.4 NNE 2 7 1 4 1027.0 1027.0 0.0
16/09:00pm 9.8 8.4 9.0 95 0.4 NNE 6 7 3 4 1027.1 1027.1 0.0
16/08:30pm 10.0 8.6 9.4 96 0.3 NNE 7 9 4 5 1026.8 1026.8 0.0
16/08:00pm 10.1 8.8 9.2 94 0.4 ESE 6 7 3 4 1026.6 1026.6 0.0
16/07:30pm 11.1 9.9 9.5 90 0.8 ESE 6 7 3 4 1026.5 1026.5 0.0
16/07:00pm 12.6 11.5 10.5 87 1.1 S 7 9 4 5 1026.2 1026.2 0.0
16/06:30pm 14.5 12.8 11.1 80 1.8 SSW 11 13 6 7 1026.0 1026.0 0.0
16/06:00pm 14.7 12.5 10.7 77 2.1 SW 13 15 7 8 1025.7 1025.7 0.0
16/05:30pm 15.9 13.7 10.9 72 2.7 SW 13 17 7 9 1025.3 1025.3 0.0
16/05:00pm 16.5 13.7 11.4 72 2.7 SW 17 20 9 11 1025.2 1025.2 0.0
16/04:30pm 16.7 14.0 11.6 72 2.8 SSW 17 24 9 13 1025.3 1025.3 0.0
16/04:00pm 16.9 13.1 11.2 69 3.1 SW 22 32 12 17 1025.4 1025.4 0.0
16/03:30pm 17.6 13.6 11.9 69 3.1 SW 24 33 13 18 1025.2 1025.2 0.0
16/03:00pm 17.8 16.0 12.0 69 3.2 W 13 19 7 10 1024.9 1024.9 0.0
16/02:30pm 17.6 16.6 13.5 77 2.3 WNW 11 15 6 8 1025.0 1025.0 0.0

Other formats

Comma delimited format used in spreadsheet applications
http://www.bom.gov.au/fwo/IDW60801/IDW60801.94610.axf

JavaScript Object Notation format (JSON) in row-major order
http://www.bom.gov.au/fwo/IDW60801/IDW60801.94610.json

Data quality

Most of these data are generated automatically and are frequently updated. Quality checks on data are not normally performed. It is possible for incorrect values to appear. Refer to information at About Latest Weather Observations and please check the disclaimer before using these data.